createdAt,value
2023-03-29T00:02:02.890Z,2.17
2023-03-29T00:04:29.812Z,2.00
2023-03-29T00:06:56.973Z,2.03
2023-03-29T00:09:26.560Z,1.85
2023-03-29T00:11:53.413Z,1.70
2023-03-29T00:14:20.240Z,1.95
2023-03-29T00:16:47.151Z,2.00
2023-03-29T00:19:13.962Z,1.95
2023-03-29T00:21:40.924Z,2.42
2023-03-29T00:24:07.864Z,1.98
2023-03-29T00:26:34.875Z,2.30
2023-03-29T00:29:01.825Z,2.28
2023-03-29T00:31:28.694Z,1.70
2023-03-29T00:33:55.874Z,2.00
2023-03-29T00:36:23.345Z,2.00
2023-03-29T00:38:50.038Z,1.80
2023-03-29T00:41:16.889Z,2.20
2023-03-29T00:43:59.870Z,2.00
2023-03-29T00:46:28.427Z,1.90
2023-03-29T00:49:02.304Z,1.90
2023-03-29T00:51:32.928Z,2.13
2023-03-29T00:54:03.494Z,1.92
2023-03-29T00:56:35.350Z,2.20
2023-03-29T00:59:23.777Z,1.63
2023-03-29T01:01:58.744Z,1.60
2023-03-29T01:04:47.682Z,1.77
2023-03-29T01:07:26.011Z,1.83
2023-03-29T01:10:04.632Z,1.70
2023-03-29T01:12:36.098Z,2.08
2023-03-29T01:15:10.013Z,2.10
2023-03-29T01:17:38.711Z,2.03
2023-03-29T01:20:14.384Z,2.00
2023-03-29T01:23:10.397Z,1.75
2023-03-29T01:26:04.553Z,2.00
2023-03-29T01:28:38.836Z,2.80
2023-03-29T01:31:11.224Z,2.05
2023-03-29T01:33:49.171Z,2.40
2023-03-29T01:36:21.219Z,2.20
2023-03-29T01:39:00.890Z,2.30
2023-03-29T01:41:40.602Z,2.60
2023-03-29T01:44:17.570Z,2.30
2023-03-29T01:46:52.433Z,2.35
2023-03-29T01:49:25.787Z,2.30
2023-03-29T01:52:03.488Z,2.20
2023-03-29T01:54:43.663Z,2.10
2023-03-29T01:57:12.328Z,2.30
2023-03-29T01:59:43.676Z,2.47
2023-03-29T02:02:14.822Z,2.40
2023-03-29T02:04:50.173Z,2.40
2023-03-29T02:07:21.529Z,2.40
2023-03-29T02:09:52.716Z,2.28
2023-03-29T02:12:20.879Z,2.45
2023-03-29T02:14:47.638Z,2.05
2023-03-29T02:17:26.323Z,2.15
2023-03-29T02:20:00.799Z,2.13
2023-03-29T02:22:37.613Z,1.92
2023-03-29T02:25:08.988Z,2.28
2023-03-29T02:27:38.108Z,2.08
2023-03-29T02:30:07.485Z,2.40
2023-03-29T02:32:48.918Z,2.33
2023-03-29T02:35:45.795Z,2.25
2023-03-29T02:38:14.772Z,1.98
2023-03-29T02:40:42.972Z,2.67
2023-03-29T02:43:11.783Z,2.22
2023-03-29T02:45:40.568Z,2.58
2023-03-29T02:48:12.555Z,2.40
2023-03-29T02:50:41.772Z,1.98
2023-03-29T02:53:17.177Z,2.40
2023-03-29T02:55:46.946Z,2.20
2023-03-29T02:58:15.595Z,2.67
2023-03-29T03:00:46.712Z,2.47
2023-03-29T03:03:15.667Z,2.22
2023-03-29T03:05:45.006Z,2.20
2023-03-29T03:08:11.851Z,2.33
2023-03-29T03:10:39.357Z,2.30
2023-03-29T03:13:06.721Z,2.30
2023-03-29T03:15:35.954Z,2.08
2023-03-29T03:18:03.853Z,2.33
2023-03-29T03:20:31.255Z,1.90
2023-03-29T03:22:58.557Z,1.98
2023-03-29T03:25:25.906Z,2.00
2023-03-29T03:27:53.212Z,2.20
2023-03-29T03:30:22.666Z,2.00
2023-03-29T03:32:58.219Z,2.05
2023-03-29T03:35:46.393Z,2.70
2023-03-29T03:38:15.402Z,2.40
2023-03-29T03:40:43.516Z,2.88
2023-03-29T03:43:10.464Z,2.40
2023-03-29T03:45:37.304Z,3.15
2023-03-29T03:48:11.805Z,3.22
2023-03-29T03:50:51.240Z,2.67
2023-03-29T03:53:18.897Z,2.58
2023-03-29T03:56:09.314Z,2.67
2023-03-29T03:58:51.770Z,2.40
2023-03-29T04:01:19.726Z,2.53
2023-03-29T04:03:58.081Z,2.60
2023-03-29T04:06:25.505Z,2.92
2023-03-29T04:09:13.072Z,2.30
2023-03-29T04:11:43.110Z,2.90
2023-03-29T04:14:11.229Z,2.35
2023-03-29T04:16:58.436Z,2.95
2023-03-29T04:19:43.813Z,2.40
2023-03-29T04:22:11.108Z,2.60
2023-03-29T04:24:38.101Z,2.70
2023-03-29T04:27:33.345Z,2.47
2023-03-29T04:30:05.152Z,2.55
2023-03-29T04:32:52.287Z,2.50
2023-03-29T04:35:19.325Z,2.85
2023-03-29T04:37:46.194Z,3.30
2023-03-29T04:40:15.522Z,2.72
2023-03-29T04:43:08.149Z,6.95
2023-03-29T04:45:37.350Z,11.77
2023-03-29T04:48:12.982Z,6.57
2023-03-29T04:50:46.814Z,5.10
2023-03-29T04:53:15.455Z,5.43
2023-03-29T04:55:43.775Z,4.88
2023-03-29T04:58:14.738Z,4.80
2023-03-29T05:00:43.076Z,4.68
2023-03-29T05:03:13.519Z,4.55
2023-03-29T05:05:50.730Z,5.15
2023-03-29T05:08:17.919Z,6.22
2023-03-29T05:11:10.517Z,9.43
2023-03-29T05:13:38.034Z,12.30
2023-03-29T05:16:06.875Z,8.88
2023-03-29T05:18:33.889Z,7.43
2023-03-29T05:21:01.065Z,6.47
2023-03-29T05:23:28.962Z,6.55
2023-03-29T05:26:15.482Z,8.07
2023-03-29T05:28:48.417Z,11.43
2023-03-29T05:31:17.070Z,15.07
2023-03-29T05:33:48.238Z,14.35
2023-03-29T05:36:17.552Z,12.77
2023-03-29T05:38:46.793Z,13.00
2023-03-29T05:41:15.932Z,12.95
2023-03-29T05:44:01.626Z,11.32
2023-03-29T05:46:29.726Z,9.57
2023-03-29T05:49:00.877Z,9.10
2023-03-29T05:51:45.799Z,7.53
2023-03-29T05:54:13.138Z,6.32
2023-03-29T05:56:39.935Z,5.60
2023-03-29T05:59:08.523Z,5.22
2023-03-29T06:01:35.907Z,5.03
2023-03-29T06:04:06.625Z,4.63
2023-03-29T06:06:41.719Z,4.85
2023-03-29T06:09:09.525Z,5.65
2023-03-29T06:11:40.835Z,5.60
2023-03-29T06:14:34.104Z,6.15
2023-03-29T06:17:14.759Z,5.35
2023-03-29T06:19:42.256Z,5.10
2023-03-29T06:22:09.048Z,4.80
2023-03-29T06:24:35.878Z,5.00
2023-03-29T06:27:09.114Z,4.70
2023-03-29T06:29:36.301Z,5.35
2023-03-29T06:32:03.375Z,5.32
2023-03-29T06:34:48.075Z,6.45
2023-03-29T06:37:33.000Z,6.00
2023-03-29T06:40:23.017Z,5.10
2023-03-29T06:42:51.142Z,4.53
2023-03-29T06:45:38.093Z,4.28
2023-03-29T06:48:10.757Z,4.93
2023-03-29T06:50:37.762Z,7.80
2023-03-29T06:53:13.427Z,4.93
2023-03-29T06:55:42.149Z,4.60
2023-03-29T06:58:29.165Z,4.30
2023-03-29T07:01:04.861Z,3.83
2023-03-29T07:03:46.686Z,3.25
2023-03-29T07:06:20.449Z,3.35
2023-03-29T07:08:52.347Z,3.65
2023-03-29T07:11:46.707Z,3.63
2023-03-29T07:14:21.974Z,2.92
2023-03-29T07:16:49.603Z,3.58
2023-03-29T07:19:30.342Z,3.20
2023-03-29T07:22:22.249Z,2.88
2023-03-29T07:24:54.339Z,2.50
2023-03-29T07:27:21.188Z,3.10
2023-03-29T07:29:50.071Z,3.15
2023-03-29T07:32:18.003Z,3.78
2023-03-29T07:34:44.774Z,3.72
2023-03-29T07:37:19.698Z,3.63
2023-03-29T07:39:47.374Z,3.75
2023-03-29T07:42:31.366Z,3.38
2023-03-29T07:44:58.664Z,3.35
2023-03-29T07:47:30.631Z,2.92
2023-03-29T07:49:59.293Z,3.33
2023-03-29T07:52:28.069Z,3.22
2023-03-29T07:54:56.150Z,3.20
2023-03-29T07:57:27.743Z,3.28
2023-03-29T07:59:57.043Z,3.40
2023-03-29T08:02:27.473Z,3.08
2023-03-29T08:04:58.953Z,3.38
2023-03-29T08:07:46.100Z,3.10
2023-03-29T08:10:27.870Z,3.50
2023-03-29T08:13:24.062Z,3.88
2023-03-29T08:16:14.801Z,3.60
2023-03-29T08:18:49.550Z,3.60
2023-03-29T08:21:17.317Z,3.78
2023-03-29T08:23:47.758Z,3.78
2023-03-29T08:26:36.449Z,3.20
2023-03-29T08:29:04.131Z,3.88
2023-03-29T08:31:30.873Z,3.75
2023-03-29T08:33:58.131Z,3.53
2023-03-29T08:36:43.669Z,3.50
2023-03-29T08:39:19.696Z,3.70
2023-03-29T08:42:06.719Z,3.60
2023-03-29T08:44:56.078Z,3.75
2023-03-29T08:49:56.592Z,3.13
2023-03-29T08:52:43.256Z,3.40
2023-03-29T08:55:42.856Z,3.00
2023-03-29T08:58:32.726Z,3.90
2023-03-29T09:01:03.596Z,3.47
2023-03-29T09:03:45.396Z,3.40
2023-03-29T09:06:22.076Z,3.28
2023-03-29T09:08:52.675Z,2.30
2023-03-29T09:11:23.735Z,2.60
2023-03-29T09:13:54.164Z,2.88
2023-03-29T09:19:15.649Z,2.30
2023-03-29T09:22:18.805Z,2.00
2023-03-29T09:25:10.823Z,2.25
2023-03-29T09:27:55.768Z,2.15
2023-03-29T09:30:41.692Z,3.72
2023-03-29T09:33:29.443Z,2.33
2023-03-29T09:36:40.655Z,2.47
2023-03-29T09:41:44.911Z,2.47
2023-03-29T09:44:29.817Z,4.22
2023-03-29T09:47:32.610Z,3.00
2023-03-29T09:50:23.082Z,3.13
2023-03-29T09:52:54.588Z,4.28
2023-03-29T09:55:28.717Z,3.70
2023-03-29T09:58:13.737Z,2.22
2023-03-29T10:00:45.395Z,1.77
2023-03-29T10:03:24.553Z,1.75
2023-03-29T10:06:09.934Z,1.77
2023-03-29T10:08:46.264Z,1.83
2023-03-29T10:11:47.734Z,1.73
2023-03-29T10:14:21.305Z,2.03
2023-03-29T10:16:55.854Z,2.00
2023-03-29T10:19:32.973Z,2.17
2023-03-29T10:22:08.421Z,1.70
2023-03-29T10:24:35.203Z,1.60
2023-03-29T10:27:06.929Z,1.70
2023-03-29T10:29:40.240Z,1.13
2023-03-29T10:32:23.079Z,1.25
2023-03-29T10:34:52.162Z,0.93
2023-03-29T10:37:21.152Z,0.93
2023-03-29T10:39:48.988Z,1.40
2023-03-29T10:42:18.576Z,0.90
2023-03-29T10:44:58.183Z,1.17
2023-03-29T10:47:26.142Z,1.92
2023-03-29T10:49:56.832Z,1.25
2023-03-29T10:52:25.198Z,1.83
2023-03-29T10:54:54.617Z,1.20
2023-03-29T10:57:51.860Z,1.10
2023-03-29T11:00:29.046Z,1.05
2023-03-29T11:03:20.222Z,1.20
2023-03-29T11:05:52.525Z,1.50
2023-03-29T11:08:43.649Z,1.75
2023-03-29T11:11:20.024Z,1.08
2023-03-29T11:14:13.667Z,1.58
2023-03-29T11:17:15.884Z,1.30
2023-03-29T11:20:08.371Z,1.10
2023-03-29T11:22:52.373Z,1.33
2023-03-29T11:25:30.152Z,1.30
2023-03-29T11:28:15.725Z,1.17
2023-03-29T11:31:06.355Z,1.30
2023-03-29T11:33:42.279Z,1.00
2023-03-29T11:36:39.311Z,1.13
2023-03-29T11:39:12.194Z,1.30
2023-03-29T11:41:43.962Z,1.20
2023-03-29T11:44:34.219Z,1.38
2023-03-29T11:47:22.720Z,1.65
2023-03-29T11:50:28.111Z,1.08
2023-03-29T11:53:02.238Z,1.20
2023-03-29T11:55:33.849Z,1.10
2023-03-29T11:58:13.286Z,1.25
2023-03-29T12:00:58.339Z,1.10
2023-03-29T12:03:46.216Z,1.30
2023-03-29T12:07:01.753Z,0.90
2023-03-29T12:09:47.877Z,1.42
2023-03-29T12:12:53.146Z,1.38
2023-03-29T12:15:24.973Z,1.70
2023-03-29T12:18:17.950Z,1.20
2023-03-29T12:20:49.850Z,1.52
2023-03-29T12:23:18.005Z,1.48
2023-03-29T12:26:12.020Z,1.20
2023-03-29T12:28:57.344Z,1.17
2023-03-29T12:31:24.192Z,1.35
2023-03-29T12:34:14.194Z,1.30
2023-03-29T12:37:24.679Z,1.08
2023-03-29T12:40:19.203Z,1.00
2023-03-29T12:43:08.717Z,1.38
2023-03-29T12:45:58.200Z,1.13
2023-03-29T12:48:28.098Z,1.40
2023-03-29T12:51:02.818Z,1.20
2023-03-29T12:53:35.768Z,1.20
2023-03-29T12:56:04.049Z,1.02
2023-03-29T12:58:40.308Z,1.30
2023-03-29T13:01:24.961Z,0.98
2023-03-29T13:04:01.718Z,1.95
2023-03-29T13:06:56.351Z,1.25
2023-03-29T13:09:30.079Z,1.50
2023-03-29T13:12:13.056Z,1.30
2023-03-29T13:14:46.429Z,1.50
2023-03-29T13:17:26.005Z,1.50
2023-03-29T13:20:09.547Z,1.50
2023-03-29T13:22:59.217Z,1.70
2023-03-29T13:25:45.150Z,1.80
2023-03-29T13:28:19.971Z,1.90
2023-03-29T13:30:58.938Z,1.90
2023-03-29T13:33:34.647Z,2.28
2023-03-29T13:36:11.776Z,2.80
2023-03-29T13:38:54.339Z,2.13
2023-03-29T13:41:40.389Z,1.75
2023-03-29T13:44:24.995Z,1.90
2023-03-29T13:47:14.037Z,2.00
2023-03-29T13:49:44.592Z,2.92
2023-03-29T13:52:34.540Z,4.03
2023-03-29T13:57:39.685Z,3.08
2023-03-29T14:00:20.226Z,3.33
2023-03-29T14:02:58.471Z,2.90
2023-03-29T14:05:41.897Z,2.20
2023-03-29T14:08:36.005Z,3.00
2023-03-29T14:11:06.974Z,3.22
2023-03-29T14:13:34.892Z,4.75
2023-03-29T14:16:06.945Z,3.63
2023-03-29T14:18:37.955Z,4.60
2023-03-29T14:21:05.732Z,5.13
2023-03-29T14:23:35.236Z,4.00
2023-03-29T14:26:16.648Z,3.00
2023-03-29T14:28:48.711Z,2.97
2023-03-29T14:31:21.841Z,3.50
2023-03-29T14:33:57.491Z,2.72
2023-03-29T14:36:27.190Z,3.03
2023-03-29T14:38:59.530Z,2.50
2023-03-29T14:41:31.293Z,2.80
2023-03-29T14:43:59.317Z,2.40
2023-03-29T14:46:27.337Z,2.25
2023-03-29T14:48:55.876Z,2.83
2023-03-29T14:51:28.590Z,3.00
2023-03-29T14:53:57.537Z,3.70
2023-03-29T14:56:26.357Z,3.42
2023-03-29T14:58:56.960Z,3.05
2023-03-29T15:01:26.197Z,2.70
2023-03-29T15:04:11.053Z,2.80
2023-03-29T15:06:42.493Z,4.88
2023-03-29T15:09:19.909Z,6.50
2023-03-29T15:11:52.680Z,7.72
2023-03-29T15:14:21.134Z,6.47
2023-03-29T15:16:50.181Z,3.70
2023-03-29T15:19:21.025Z,5.00
2023-03-29T15:21:49.907Z,6.72
2023-03-29T15:24:28.548Z,9.77
2023-03-29T15:27:17.046Z,5.50
2023-03-29T15:29:46.935Z,6.45
2023-03-29T15:32:25.693Z,8.30
2023-03-29T15:35:04.994Z,6.90
2023-03-29T15:37:32.130Z,4.85
2023-03-29T15:39:59.076Z,2.97
2023-03-29T15:42:26.352Z,2.50
2023-03-29T15:44:56.653Z,2.42
2023-03-29T15:47:24.074Z,2.33
2023-03-29T15:49:50.934Z,2.53
2023-03-29T15:52:17.723Z,2.30
2023-03-29T15:54:44.455Z,2.40
2023-03-29T15:57:15.206Z,2.55
2023-03-29T15:59:43.570Z,2.58
2023-03-29T16:02:17.545Z,2.53
2023-03-29T16:04:44.533Z,3.10
2023-03-29T16:07:17.094Z,3.28
2023-03-29T16:09:45.957Z,3.45
2023-03-29T16:12:13.543Z,3.20
2023-03-29T16:14:42.638Z,3.60
2023-03-29T16:17:09.919Z,3.60
2023-03-29T16:19:36.680Z,4.97
2023-03-29T16:22:07.378Z,4.03
2023-03-29T16:24:35.610Z,4.72
2023-03-29T16:27:02.836Z,5.97
2023-03-29T16:29:30.430Z,6.05
2023-03-29T16:31:57.658Z,5.07
2023-03-29T16:34:24.745Z,5.60
2023-03-29T16:36:53.053Z,5.05
2023-03-29T16:39:19.919Z,5.10
2023-03-29T16:41:48.852Z,5.03
2023-03-29T16:44:18.988Z,4.30
2023-03-29T16:46:47.310Z,3.90
2023-03-29T16:49:18.183Z,4.18
2023-03-29T16:51:47.204Z,4.10
2023-03-29T16:54:15.026Z,4.00
2023-03-29T16:56:41.874Z,3.53
2023-03-29T16:59:09.347Z,3.47
2023-03-29T17:01:36.585Z,3.08
2023-03-29T17:04:04.193Z,2.70
2023-03-29T17:06:32.674Z,3.28
2023-03-29T17:09:00.764Z,2.70
2023-03-29T17:11:28.331Z,3.03
2023-03-29T17:13:56.113Z,3.13
2023-03-29T17:16:23.035Z,2.70
2023-03-29T17:18:50.180Z,2.75
2023-03-29T17:21:17.129Z,3.00
2023-03-29T17:23:43.877Z,2.58
2023-03-29T17:26:11.899Z,2.85
2023-03-29T17:28:38.995Z,2.58
2023-03-29T17:31:09.735Z,2.50
2023-03-29T17:33:36.691Z,2.47
2023-03-29T17:36:05.856Z,2.55
2023-03-29T17:38:34.205Z,2.40
2023-03-29T17:41:02.784Z,2.40
2023-03-29T17:43:29.593Z,2.13
2023-03-29T17:45:56.693Z,2.45
2023-03-29T17:48:24.386Z,2.30
2023-03-29T17:50:51.508Z,1.92
2023-03-29T17:53:18.253Z,2.92
2023-03-29T17:55:45.038Z,3.10
2023-03-29T17:58:11.849Z,3.45
2023-03-29T18:00:38.721Z,3.28
2023-03-29T18:03:05.908Z,2.95
2023-03-29T18:05:34.309Z,3.00
2023-03-29T18:08:01.444Z,2.95
2023-03-29T18:10:28.291Z,2.58
2023-03-29T18:12:55.190Z,2.28
2023-03-29T18:15:22.042Z,3.00
2023-03-29T18:17:48.890Z,3.78
2023-03-29T18:20:16.218Z,4.25
2023-03-29T18:22:44.340Z,4.65
2023-03-29T18:25:11.314Z,3.80
2023-03-29T18:27:39.414Z,4.00
2023-03-29T18:30:08.663Z,3.97
2023-03-29T18:32:36.382Z,4.25
2023-03-29T18:35:03.542Z,4.20
2023-03-29T18:37:30.466Z,3.70
2023-03-29T18:39:57.213Z,5.43
2023-03-29T18:42:24.011Z,4.70
2023-03-29T18:44:51.282Z,4.28
2023-03-29T18:47:18.459Z,4.07
2023-03-29T18:49:45.648Z,6.55
2023-03-29T18:52:12.559Z,7.97
2023-03-29T18:54:39.461Z,6.88
2023-03-29T18:57:06.411Z,6.20
2023-03-29T18:59:35.909Z,4.93
2023-03-29T19:02:03.523Z,4.85
2023-03-29T19:04:30.525Z,4.60
2023-03-29T19:07:01.799Z,3.97
2023-03-29T19:09:28.855Z,4.47
2023-03-29T19:11:55.674Z,4.68
2023-03-29T19:14:25.239Z,4.05
2023-03-29T19:16:52.799Z,5.97
2023-03-29T19:19:21.387Z,13.02
2023-03-29T19:21:48.830Z,12.73
2023-03-29T19:24:16.594Z,11.93
2023-03-29T19:26:44.470Z,10.48
2023-03-29T19:29:11.765Z,8.82
2023-03-29T19:31:39.001Z,6.07
2023-03-29T19:34:07.110Z,6.55
2023-03-29T19:36:33.963Z,6.72
2023-03-29T19:39:01.244Z,6.75
2023-03-29T19:41:28.622Z,6.50
2023-03-29T19:43:55.535Z,6.50
2023-03-29T19:46:22.858Z,6.20
2023-03-29T19:48:51.707Z,5.97
2023-03-29T19:51:18.718Z,6.07
2023-03-29T19:53:45.418Z,6.00
2023-03-29T19:56:14.396Z,5.90
2023-03-29T19:58:41.356Z,6.18
2023-03-29T20:01:08.122Z,5.85
2023-03-29T20:03:36.158Z,6.45
2023-03-29T20:06:03.462Z,5.40
2023-03-29T20:08:30.545Z,5.43
2023-03-29T20:11:03.556Z,6.03
2023-03-29T20:13:38.063Z,5.65
2023-03-29T20:16:16.291Z,5.63
2023-03-29T20:18:46.676Z,5.53
2023-03-29T20:21:16.484Z,5.57
2023-03-29T20:23:44.215Z,5.03
2023-03-29T20:26:11.195Z,5.22
2023-03-29T20:28:38.171Z,5.22
2023-03-29T20:31:06.862Z,5.38
2023-03-29T20:33:33.840Z,4.68
2023-03-29T20:36:01.014Z,4.65
2023-03-29T20:38:28.020Z,4.82
2023-03-29T20:40:55.439Z,4.25
2023-03-29T20:43:22.381Z,4.10
2023-03-29T20:45:52.622Z,4.72
2023-03-29T20:48:23.220Z,4.45
2023-03-29T20:50:50.973Z,4.38
2023-03-29T20:53:18.363Z,4.40
2023-03-29T20:55:45.410Z,4.70
2023-03-29T20:58:12.310Z,4.95
2023-03-29T21:00:40.445Z,5.28
2023-03-29T21:03:08.627Z,4.88
2023-03-29T21:05:35.786Z,5.28
2023-03-29T21:08:04.505Z,5.97
2023-03-29T21:10:31.950Z,6.15
2023-03-29T21:13:02.597Z,6.50
2023-03-29T21:15:30.665Z,7.63
2023-03-29T21:17:58.376Z,7.20
2023-03-29T21:20:25.458Z,7.65
2023-03-29T21:22:52.198Z,6.82
2023-03-29T21:25:19.376Z,7.13
2023-03-29T21:27:46.301Z,7.68
2023-03-29T21:30:13.322Z,7.53
2023-03-29T21:32:40.155Z,7.82
2023-03-29T21:35:07.578Z,7.40
2023-03-29T21:37:34.383Z,7.70
2023-03-29T21:40:05.505Z,7.75
2023-03-29T21:42:33.407Z,7.75
2023-03-29T21:45:01.719Z,7.18
2023-03-29T21:47:28.524Z,7.63
2023-03-29T21:49:55.362Z,6.93
2023-03-29T21:52:22.461Z,7.95
2023-03-29T21:54:49.207Z,7.18
2023-03-29T21:57:16.291Z,6.97
2023-03-29T21:59:43.237Z,7.53
2023-03-29T22:02:10.282Z,7.45
2023-03-29T22:04:37.785Z,7.00
2023-03-29T22:07:06.018Z,7.13
2023-03-29T22:09:35.002Z,7.32
2023-03-29T22:12:02.972Z,8.32
2023-03-29T22:14:34.840Z,7.65
2023-03-29T22:17:05.746Z,7.20
2023-03-29T22:19:34.789Z,7.30
2023-03-29T22:22:01.690Z,6.85
2023-03-29T22:24:29.163Z,7.43
2023-03-29T22:26:56.200Z,7.15
2023-03-29T22:29:23.136Z,7.75
2023-03-29T22:31:50.553Z,7.22
2023-03-29T22:34:17.495Z,7.45
2023-03-29T22:36:44.278Z,7.32
2023-03-29T22:39:12.057Z,7.00
2023-03-29T22:41:39.065Z,6.78
2023-03-29T22:44:05.936Z,7.03
2023-03-29T22:46:32.796Z,7.15
2023-03-29T22:48:59.704Z,6.97
2023-03-29T22:51:27.264Z,7.55
2023-03-29T22:53:54.070Z,7.78
2023-03-29T22:56:22.157Z,7.22
2023-03-29T22:58:49.209Z,7.10
2023-03-29T23:01:16.257Z,7.95
2023-03-29T23:03:43.214Z,7.25
2023-03-29T23:06:10.282Z,7.97
2023-03-29T23:08:37.208Z,7.20
2023-03-29T23:11:05.183Z,7.22
2023-03-29T23:13:33.636Z,7.22
2023-03-29T23:16:02.459Z,7.43
2023-03-29T23:18:31.727Z,7.50
2023-03-29T23:20:59.065Z,6.33
2023-03-29T23:23:27.578Z,7.43
2023-03-29T23:25:55.851Z,6.50
2023-03-29T23:28:30.225Z,7.45
2023-03-29T23:31:18.502Z,6.38
2023-03-29T23:33:45.729Z,6.20
2023-03-29T23:36:15.328Z,6.53
2023-03-29T23:38:44.606Z,6.40
2023-03-29T23:41:12.931Z,6.45
2023-03-29T23:43:42.014Z,6.50
2023-03-29T23:46:14.244Z,6.45
2023-03-29T23:48:49.099Z,6.60
2023-03-29T23:51:23.258Z,6.40
2023-03-29T23:53:50.718Z,6.03
2023-03-29T23:56:17.715Z,6.45
2023-03-29T23:58:44.887Z,5.55
